Time;durP1;ratioP1;P1;durP2;ratioP2;P2;SDS_P1;SDS_P2;PMS_P1;PMS_P2;Temp;Humidity;BMP_temperature;BMP_pressure;BME280_temperature;BME280_humidity;BME280_pressure;Samples;Min_cycle;Max_cycle;Signal;HPM_P1;HPM_P2
2022/12/05 00:01:55;;;;;;;;;29.75;24.75;;;;;6.95;58.43;100963.19;5074308;27;47105;-39
2022/12/05 00:04:20;;;;;;;;;36.25;28.25;;;;;6.94;58.07;100969.28;5074247;27;45212;-39
2022/12/05 00:06:46;;;;;;;;;29.00;21.75;;;;;6.95;58.17;100975.34;5088150;27;45601;-39
2022/12/05 00:09:12;;;;;;;;;40.00;28.00;;;;;6.92;58.05;100971.00;5072141;28;57879;-40
2022/12/05 00:11:39;;;;;;;;;33.00;24.75;;;;;6.89;57.92;100976.25;5075738;27;46681;-40
2022/12/05 00:14:05;;;;;;;;;42.75;32.25;;;;;6.86;58.00;100968.47;5072996;27;45468;-43
2022/12/05 00:16:32;;;;;;;;;43.50;33.50;;;;;6.87;58.38;100977.13;5076400;27;45349;-40
2022/12/05 00:19:01;;;;;;;;;45.75;32.25;;;;;6.85;58.11;100977.13;5066406;27;45438;-40
2022/12/05 00:21:29;;;;;;;;;34.50;26.50;;;;;6.83;58.32;100981.50;5069973;28;45365;-41
2022/12/05 00:23:55;;;;;;;;;42.25;27.75;;;;;6.80;58.31;100982.41;5077129;27;45352;-40
2022/12/05 00:26:21;;;;;;;;;34.25;26.00;;;;;6.78;58.02;100983.25;5067546;27;47270;-40
2022/12/05 00:28:46;;;;;;;;;38.00;29.00;;;;;6.79;58.20;100980.66;5073140;27;45450;-40
2022/12/05 00:31:21;;;;;;;;;35.75;25.00;;;;;6.78;58.40;100985.88;5071970;27;45450;-40
2022/12/05 00:33:47;;;;;;;;;42.50;29.75;;;;;6.76;58.44;100987.63;5073573;27;45797;-40
2022/12/05 00:36:17;;;;;;;;;45.25;34.25;;;;;6.73;58.71;100988.53;5067054;27;45421;-41
2022/12/05 00:38:43;;;;;;;;;36.25;27.00;;;;;6.73;58.60;100991.13;5072137;28;45324;-40
2022/12/05 00:41:28;;;;;;;;;35.25;26.25;;;;;6.71;58.23;100990.28;5066775;27;45384;-39
2022/12/05 00:43:55;;;;;;;;;34.75;25.25;;;;;6.69;58.30;100985.94;5074753;28;46197;-40
2022/12/05 00:46:22;;;;;;;;;38.50;25.00;;;;;6.66;58.47;100986.84;5076486;27;45500;-39
2022/12/05 00:48:48;;;;;;;;;31.25;27.50;;;;;6.64;58.58;100993.78;5075095;28;45451;-40
2022/12/05 00:51:16;;;;;;;;;34.00;27.50;;;;;6.64;58.28;100978.19;5071658;27;45882;-40
2022/12/05 00:53:43;;;;;;;;;35.00;24.25;;;;;6.65;58.62;100982.50;5058345;28;46520;-40
2022/12/05 00:56:12;;;;;;;;;36.75;28.75;;;;;6.66;58.27;100984.25;5070764;27;47273;-40
2022/12/05 00:58:38;;;;;;;;;43.00;29.50;;;;;6.68;58.67;100981.63;5075217;27;45340;-38
2022/12/05 01:01:19;;;;;;;;;33.00;25.00;;;;;6.68;58.46;100984.22;5073401;28;46227;-39
2022/12/05 01:03:45;;;;;;;;;36.75;29.00;;;;;6.66;58.68;100989.44;5066283;28;46729;-39
2022/12/05 01:06:12;;;;;;;;;38.50;29.25;;;;;6.63;58.79;100998.09;5071848;27;45512;-39
2022/12/05 01:08:38;;;;;;;;;40.25;29.00;;;;;6.60;58.21;100994.66;5072698;27;45590;-39
2022/12/05 01:11:05;;;;;;;;;37.75;27.75;;;;;6.57;58.45;100997.28;5069322;27;45452;-39
2022/12/05 01:13:31;;;;;;;;;41.50;29.25;;;;;6.53;58.53;100998.19;5069736;27;45445;-39
2022/12/05 01:15:56;;;;;;;;;35.00;25.00;;;;;6.51;58.70;101000.78;5072973;27;45625;-39
2022/12/05 01:18:23;;;;;;;;;44.25;30.25;;;;;6.50;58.81;101003.38;5078912;27;50486;-39
2022/12/05 01:20:49;;;;;;;;;42.00;28.25;;;;;6.46;58.85;101006.03;5075285;27;46327;-40
2022/12/05 01:23:15;;;;;;;;;48.50;30.50;;;;;6.46;58.80;101006.03;5072302;27;45499;-40
2022/12/05 01:25:42;;;;;;;;;40.50;33.25;;;;;6.46;58.71;101019.03;5073614;27;45363;-39
2022/12/05 01:28:07;;;;;;;;;51.25;37.00;;;;;6.42;58.93;101019.03;5076625;27;45537;-39
2022/12/05 01:30:39;;;;;;;;;58.75;41.50;;;;;6.41;58.83;101025.97;5075071;27;46208;-39
2022/12/05 01:33:05;;;;;;;;;54.00;44.25;;;;;6.40;58.89;101028.59;5068719;27;46920;-39
2022/12/05 01:35:35;;;;;;;;;66.25;48.75;;;;;6.40;58.71;101032.03;5074391;27;45361;-39
2022/12/05 01:38:01;;;;;;;;;69.00;46.75;;;;;6.40;59.37;101028.59;5074151;27;45251;-39
2022/12/05 01:40:26;;;;;;;;;67.25;51.75;;;;;6.37;59.17;101033.78;5077219;28;46032;-39
2022/12/05 01:42:52;;;;;;;;;66.75;48.75;;;;;6.35;59.24;101036.41;5071847;27;45443;-39
2022/12/05 01:45:30;;;;;;;;;57.25;40.75;;;;;6.37;58.98;101047.66;5074336;27;45458;-39
2022/12/05 01:47:56;;;;;;;;;54.75;41.75;;;;;6.36;59.02;101047.69;5073277;28;45348;-39
2022/12/05 01:50:21;;;;;;;;;55.50;38.75;;;;;6.37;58.75;101052.00;5068745;27;46867;-39
2022/12/05 01:52:47;;;;;;;;;44.75;36.00;;;;;6.40;59.06;101052.84;5073350;27;45502;-39
2022/12/05 01:55:15;;;;;;;;;44.50;34.50;;;;;6.42;58.86;101061.50;5070950;28;50292;-39
2022/12/05 01:57:40;;;;;;;;;43.25;31.50;;;;;6.42;58.99;101066.69;5066419;27;45556;-39
2022/12/05 02:00:12;;;;;;;;;42.50;35.25;;;;;6.44;58.99;101074.47;5065515;28;46704;-39
2022/12/05 02:02:40;;;;;;;;;40.50;33.75;;;;;6.45;59.04;101079.69;5074865;27;45526;-39
2022/12/05 02:05:14;;;;;;;;;43.00;34.00;;;;;6.45;59.10;101082.28;5075002;27;45399;-39
2022/12/05 02:07:42;;;;;;;;;42.75;29.50;;;;;6.44;59.07;101075.34;5075306;28;45553;-39
2022/12/05 02:10:08;;;;;;;;;43.25;31.00;;;;;6.46;58.98;101077.94;5072279;28;46188;-40
2022/12/05 02:12:34;;;;;;;;;40.00;33.25;;;;;6.47;58.74;101074.47;5066969;27;45487;-39
2022/12/05 02:15:30;;;;;;;;;43.75;33.50;;;;;6.41;58.80;101072.78;5062002;28;45386;-39
2022/12/05 02:18:17;;;;;;;;;38.75;31.00;;;;;6.39;58.96;101071.03;5087517;27;45493;-39
2022/12/05 02:20:55;;;;;;;;;50.75;35.00;;;;;6.35;59.00;101070.19;5071532;27;46361;-39
2022/12/05 02:23:49;;;;;;;;;45.75;34.00;;;;;6.32;58.92;101071.94;5063275;27;45354;-39
2022/12/05 02:26:30;;;;;;;;;39.00;27.25;;;;;6.26;58.97;101068.47;5068333;27;45429;-39
2022/12/05 02:29:04;;;;;;;;;54.25;36.50;;;;;6.24;58.95;101079.78;5076963;27;45448;-40
2022/12/05 02:31:52;;;;;;;;;48.25;29.50;;;;;6.22;58.83;101074.56;5069142;28;45421;-39
2022/12/05 02:34:24;;;;;;;;;48.00;37.25;;;;;6.20;59.14;101073.72;5071159;27;45900;-40
2022/12/05 02:36:49;;;;;;;;;46.50;35.25;;;;;6.18;59.32;101070.28;5076549;27;45460;-39
2022/12/05 02:39:25;;;;;;;;;41.00;32.00;;;;;6.16;59.60;101071.13;5072027;28;45326;-39
2022/12/05 02:42:02;;;;;;;;;42.75;36.50;;;;;6.17;59.31;101080.66;5070878;27;46154;-39
2022/12/05 02:44:38;;;;;;;;;53.50;38.75;;;;;6.18;59.32;101070.28;5067931;27;45374;-39
2022/12/05 02:47:05;;;;;;;;;49.00;36.25;;;;;6.18;59.20;101080.66;5067611;27;45281;-39
2022/12/05 02:49:34;;;;;;;;;41.00;31.75;;;;;6.17;59.13;101078.91;5074787;27;45268;-41
2022/12/05 02:52:02;;;;;;;;;45.75;38.00;;;;;6.16;59.42;101078.91;5071484;27;46225;-39
2022/12/05 02:54:35;;;;;;;;;46.25;36.00;;;;;6.16;59.16;101071.13;5053028;28;45482;-48
2022/12/05 02:57:01;;;;;;;;;41.25;36.75;;;;;6.13;59.40;101077.22;5072526;28;45618;-39
2022/12/05 02:59:27;;;;;;;;;42.00;30.75;;;;;6.13;59.41;101077.22;5067279;27;45316;-39
2022/12/05 03:01:53;;;;;;;;;49.25;37.00;;;;;6.10;59.41;101073.75;5077412;28;45288;-39
2022/12/05 03:04:20;;;;;;;;;50.25;36.00;;;;;6.05;59.48;101076.34;5077568;27;45476;-39
2022/12/05 03:06:58;;;;;;;;;58.00;39.25;;;;;6.02;59.41;101072.06;5066761;27;45655;-39
2022/12/05 03:09:29;;;;;;;;;47.50;39.75;;;;;5.99;59.64;101073.78;5083580;27;45581;-39
2022/12/05 03:12:12;;;;;;;;;46.25;34.25;;;;;5.99;59.73;101069.44;5063142;27;47183;-39
2022/12/05 03:14:42;;;;;;;;;44.25;36.25;;;;;5.97;60.01;101071.19;5064824;27;45348;-40
2022/12/05 03:17:12;;;;;;;;;47.75;38.75;;;;;5.98;59.78;101077.25;5069198;27;45427;-39
2022/12/05 03:20:16;;;;;;;;;44.00;28.75;;;;;6.01;59.95;101072.06;5069719;28;45513;-39
2022/12/05 03:22:58;;;;;;;;;43.50;36.00;;;;;6.02;59.62;101073.75;5060338;27;45489;-40
2022/12/05 03:25:40;;;;;;;;;48.50;36.00;;;;;6.02;59.85;101081.56;5088668;27;45396;-39
2022/12/05 03:28:17;;;;;;;;;46.75;36.00;;;;;6.00;59.86;101079.00;5067329;27;45531;-39
2022/12/05 03:30:42;;;;;;;;;52.75;36.75;;;;;6.02;59.90;101087.63;5065332;28;45329;-39
2022/12/05 03:33:12;;;;;;;;;52.00;36.50;;;;;6.03;59.78;101078.09;5068408;27;69405;-39
2022/12/05 03:36:17;;;;;;;;;46.00;36.00;;;;;6.02;60.07;101079.84;5064893;27;45965;-39
2022/12/05 03:39:15;;;;;;;;;44.50;37.25;;;;;6.04;59.97;101088.50;5075878;27;45457;-39
2022/12/05 03:41:48;;;;;;;;;57.00;39.50;;;;;6.01;59.87;101091.09;5064314;27;45670;-40
2022/12/05 03:44:18;;;;;;;;;49.50;33.50;;;;;6.00;59.75;101093.69;5071626;27;45461;-39
2022/12/05 03:46:50;;;;;;;;;53.50;36.75;;;;;5.98;59.82;101092.84;5072296;28;45452;-40
2022/12/05 03:49:34;;;;;;;;;53.75;37.75;;;;;5.95;59.84;101098.00;5075511;27;45544;-39
2022/12/05 03:52:24;;;;;;;;;48.00;31.75;;;;;5.93;59.55;101104.94;5081463;27;45442;-39
2022/12/05 03:54:55;;;;;;;;;53.50;38.00;;;;;5.89;59.89;101099.72;5070237;27;46161;-39
2022/12/05 03:57:22;;;;;;;;;50.75;38.75;;;;;5.89;59.89;101106.66;5080219;27;45534;-39
2022/12/05 04:00:03;;;;;;;;;47.00;36.00;;;;;5.88;59.97;101104.97;5093473;27;45435;-39
2022/12/05 04:02:49;;;;;;;;;48.25;36.50;;;;;5.88;59.84;101105.81;5075038;27;45434;-39
2022/12/05 04:05:44;;;;;;;;;52.00;35.50;;;;;5.90;59.82;101114.47;5067720;28;46076;-39
2022/12/05 04:08:20;;;;;;;;;45.00;34.50;;;;;5.90;60.25;101113.59;5077618;27;46423;-39
2022/12/05 04:10:48;;;;;;;;;48.50;36.00;;;;;5.90;60.02;101114.47;5073516;27;45430;-40
2022/12/05 04:13:30;;;;;;;;;44.25;34.50;;;;;5.92;60.14;101122.25;5085735;27;45398;-39
2022/12/05 04:18:54;;;;;;;;;44.25;36.00;;;;;5.93;60.02;101117.91;5078247;27;45524;-41
2022/12/05 04:21:37;;;;;;;;;50.25;36.00;;;;;5.96;60.15;101124.00;5076773;27;45786;-39
2022/12/05 04:26:58;;;;;;;;;50.50;35.25;;;;;5.95;59.97;101111.88;5064457;27;45766;-39
2022/12/05 04:29:31;;;;;;;;;39.50;34.25;;;;;5.97;59.99;101122.28;5087730;27;45978;-39
2022/12/05 04:31:59;;;;;;;;;55.25;39.00;;;;;5.97;60.06;101117.97;5075666;27;45434;-40
2022/12/05 04:34:27;;;;;;;;;43.75;31.75;;;;;5.98;59.90;101116.22;5069170;27;45640;-39
2022/12/05 04:37:01;;;;;;;;;43.25;34.75;;;;;5.97;59.85;101124.91;5079445;27;47036;-39
2022/12/05 04:39:35;;;;;;;;;44.50;32.00;;;;;6.00;60.13;101117.06;5078311;27;45830;-38
2022/12/05 04:42:05;;;;;;;;;43.25;36.25;;;;;5.99;59.99;101125.75;5074557;27;46151;-39
2022/12/05 04:44:38;;;;;;;;;45.50;31.25;;;;;6.02;59.85;101130.91;5072468;27;45937;-39
2022/12/05 04:47:06;;;;;;;;;49.25;36.00;;;;;6.04;59.97;101124.00;5093021;27;46279;-39
2022/12/05 04:49:32;;;;;;;;;49.25;33.75;;;;;6.06;60.15;101124.88;5076717;27;45203;-39
2022/12/05 04:52:04;;;;;;;;;38.25;32.25;;;;;6.04;59.85;101127.47;5083925;27;61238;-39
2022/12/05 04:54:30;;;;;;;;;43.50;33.00;;;;;6.03;59.67;101138.72;5071448;28;45316;-39
2022/12/05 04:57:03;;;;;;;;;45.25;31.50;;;;;6.04;60.14;101137.84;5091506;27;45477;-39
2022/12/05 04:59:29;;;;;;;;;46.75;32.00;;;;;6.02;60.07;101142.19;5068912;27;46088;-38
2022/12/05 05:01:57;;;;;;;;;48.00;33.75;;;;;6.01;59.85;101144.78;5070855;27;60071;-39
2022/12/05 05:04:28;;;;;;;;;56.25;34.75;;;;;5.99;59.67;101144.78;5090294;27;45285;-39
2022/12/05 05:06:54;;;;;;;;;41.50;31.75;;;;;6.02;59.94;101147.41;5094304;27;45508;-39
2022/12/05 05:09:19;;;;;;;;;42.75;33.25;;;;;6.05;59.86;101146.50;5079912;27;62375;-39
2022/12/05 05:11:45;;;;;;;;;40.50;28.25;;;;;6.05;59.95;101141.31;5075384;27;63983;-39
2022/12/05 05:14:10;;;;;;;;;38.75;31.00;;;;;6.03;60.12;101143.91;5092585;27;45364;-39
2022/12/05 05:16:38;;;;;;;;;47.00;34.75;;;;;6.07;60.18;101150.84;5069633;27;45446;-39
2022/12/05 05:19:04;;;;;;;;;44.00;35.00;;;;;6.04;60.26;101143.06;5070409;27;45369;-39
2022/12/05 05:21:32;;;;;;;;;41.00;32.75;;;;;6.03;59.81;101148.25;5061714;27;45338;-39
2022/12/05 05:23:58;;;;;;;;;45.25;28.00;;;;;6.00;60.01;101150.84;5066402;28;46792;-39
2022/12/05 05:26:25;;;;;;;;;46.00;31.50;;;;;5.99;60.11;101155.19;5092896;27;45954;-39
2022/12/05 05:28:50;;;;;;;;;37.25;30.75;;;;;6.03;60.06;101151.69;5075713;27;45431;-39
2022/12/05 05:31:17;;;;;;;;;38.25;31.50;;;;;6.02;59.88;101159.50;5068226;28;45645;-39
2022/12/05 05:33:42;;;;;;;;;43.75;31.75;;;;;6.05;59.94;101156.91;5075331;27;45252;-39
2022/12/05 05:36:11;;;;;;;;;39.50;26.00;;;;;6.06;60.29;101158.66;5075058;28;45371;-39
2022/12/05 05:38:38;;;;;;;;;43.25;29.50;;;;;6.04;59.96;101153.44;5089235;27;45699;-39
2022/12/05 05:41:04;;;;;;;;;34.25;25.75;;;;;6.02;59.96;101160.38;5068324;27;45406;-40
2022/12/05 05:43:30;;;;;;;;;34.50;26.25;;;;;6.00;59.99;101162.13;5070838;27;45409;-39
2022/12/05 05:45:56;;;;;;;;;39.75;30.50;;;;;6.00;60.14;101169.91;5072231;27;46276;-39
2022/12/05 05:48:21;;;;;;;;;41.75;30.50;;;;;6.01;60.16;101171.63;5071900;28;45339;-39
2022/12/05 05:50:47;;;;;;;;;32.25;27.75;;;;;6.01;60.11;101173.38;5083001;27;61751;-39
2022/12/05 05:53:12;;;;;;;;;38.00;28.50;;;;;6.02;60.13;101178.56;5072522;27;45619;-39
2022/12/05 05:55:41;;;;;;;;;45.50;33.50;;;;;6.03;59.94;101177.69;5074840;27;47099;-39
2022/12/05 05:58:07;;;;;;;;;37.25;27.00;;;;;6.06;59.89;101177.69;5067422;27;45339;-39
2022/12/05 06:00:32;;;;;;;;;42.75;30.50;;;;;6.07;59.79;101176.84;5089578;27;45482;-39
2022/12/05 06:02:57;;;;;;;;;38.00;29.50;;;;;6.06;59.70;101175.09;5062145;28;53579;-39
2022/12/05 06:05:23;;;;;;;;;48.25;29.00;;;;;6.04;59.49;101184.63;5068919;27;58700;-39
2022/12/05 06:07:48;;;;;;;;;39.00;27.50;;;;;6.05;59.49;101188.94;5088437;27;54694;-39
2022/12/05 06:10:14;;;;;;;;;44.50;27.50;;;;;6.04;59.50;101188.97;5073462;27;59572;-39
2022/12/05 06:12:39;;;;;;;;;35.00;27.75;;;;;6.05;59.49;101191.53;5072637;27;45417;-39
2022/12/05 06:15:05;;;;;;;;;35.50;30.00;;;;;6.06;59.52;101189.81;5073378;28;47091;-39
2022/12/05 06:17:30;;;;;;;;;46.75;29.25;;;;;6.08;59.46;101188.09;5067378;27;45394;-39
2022/12/05 06:19:56;;;;;;;;;31.50;24.25;;;;;6.07;59.43;101186.34;5069395;28;57498;-39
2022/12/05 06:22:21;;;;;;;;;39.50;31.75;;;;;6.11;59.69;101192.41;5064072;28;45371;-39
2022/12/05 06:24:46;;;;;;;;;23.25;15.00;;;;;6.10;59.63;101196.72;5065381;28;46152;-39
2022/12/05 06:27:12;;;;;;;;;38.25;27.00;;;;;6.12;59.29;101196.75;5067510;27;71260;-38
2022/12/05 06:29:37;;;;;;;;;33.25;28.50;;;;;6.15;59.66;101197.59;5069540;28;45422;-39
2022/12/05 06:32:03;;;;;;;;;42.75;29.00;;;;;6.16;59.47;101201.94;5071788;27;45421;-39
2022/12/05 06:34:28;;;;;;;;;45.75;26.75;;;;;6.16;59.32;101208.84;5077454;27;46053;-39
2022/12/05 06:36:53;;;;;;;;;31.50;25.00;;;;;6.15;59.34;101213.19;5070115;27;45173;-38
2022/12/05 06:39:19;;;;;;;;;36.25;29.00;;;;;6.15;59.47;101218.38;5074456;27;61240;-39
2022/12/05 06:41:44;;;;;;;;;43.50;32.00;;;;;6.14;59.41;101220.97;5088765;27;45546;-39
2022/12/05 06:44:09;;;;;;;;;33.25;28.50;;;;;6.12;59.60;101223.56;5063651;28;70033;-37
2022/12/05 06:46:35;;;;;;;;;41.25;31.00;;;;;6.11;59.62;101231.38;5063081;28;63193;-38
2022/12/05 06:49:00;;;;;;;;;28.00;22.25;;;;;6.13;59.68;101230.53;5073786;28;55166;-38
2022/12/05 06:51:25;;;;;;;;;39.25;29.50;;;;;6.13;59.70;101229.66;5069118;28;45489;-37
2022/12/05 06:53:51;;;;;;;;;43.25;30.75;;;;;6.13;59.74;101233.13;5068419;27;46041;-37
2022/12/05 06:56:18;;;;;;;;;27.00;23.75;;;;;6.12;60.03;101236.56;5073400;27;45354;-38
2022/12/05 06:58:46;;;;;;;;;37.00;30.25;;;;;6.13;59.72;101235.72;5068713;27;45440;-38
2022/12/05 07:03:58;;;;;;;;;43.25;30.75;;;;;6.15;59.55;101236.56;5072817;28;45743;-38
2022/12/05 07:06:23;;;;;;;;;37.00;30.50;;;;;6.17;59.51;101237.44;5074004;28;45836;-38
2022/12/05 07:08:48;;;;;;;;;44.75;27.50;;;;;6.18;59.66;101236.59;5078031;27;45467;-37
2022/12/05 07:11:14;;;;;;;;;33.00;22.50;;;;;6.17;59.46;101249.56;5071297;27;68414;-37
2022/12/05 07:13:39;;;;;;;;;28.75;26.75;;;;;6.17;59.69;101249.56;5071462;28;48030;-38
2022/12/05 07:16:05;;;;;;;;;30.25;21.50;;;;;6.18;59.42;101261.69;5073749;27;66524;-38
2022/12/05 07:18:31;;;;;;;;;35.50;28.50;;;;;6.17;59.28;101263.44;5075306;28;45674;-38
2022/12/05 07:20:59;;;;;;;;;28.00;25.25;;;;;6.14;59.31;101267.75;5079835;27;45615;-38
2022/12/05 07:23:24;;;;;;;;;33.50;26.25;;;;;6.13;59.23;101258.25;5070166;27;45441;-38
2022/12/05 07:25:50;;;;;;;;;31.50;24.50;;;;;6.12;59.49;101265.16;5078670;27;45343;-38
2022/12/05 07:28:15;;;;;;;;;32.75;26.50;;;;;6.12;59.28;101259.97;5073283;27;63205;-38
2022/12/05 07:30:40;;;;;;;;;30.00;23.50;;;;;6.11;59.34;101266.03;5063710;27;45437;-38
2022/12/05 07:33:06;;;;;;;;;25.25;22.25;;;;;6.10;59.43;101272.09;5072571;28;66893;-38
2022/12/05 07:35:31;;;;;;;;;30.50;23.50;;;;;6.09;59.52;101270.34;5079709;27;45805;-38
2022/12/05 07:37:57;;;;;;;;;37.25;27.00;;;;;6.08;59.41;101277.28;5078429;27;65229;-38
2022/12/05 07:40:23;;;;;;;;;43.50;33.50;;;;;6.06;59.68;101273.81;5062706;28;45394;-38
2022/12/05 07:42:48;;;;;;;;;41.75;27.50;;;;;6.05;59.64;101284.22;5070019;27;45367;-38
2022/12/05 07:45:14;;;;;;;;;39.75;29.25;;;;;6.01;59.65;101280.75;5065074;28;45599;-38
2022/12/05 07:47:39;;;;;;;;;38.00;27.75;;;;;6.01;59.37;101285.09;5060684;28;46444;-38
2022/12/05 07:50:05;;;;;;;;;32.25;27.50;;;;;5.98;59.46;101290.28;5062682;27;45263;-39
2022/12/05 07:52:31;;;;;;;;;31.25;26.00;;;;;5.96;60.17;101285.06;5091620;27;46309;-39
2022/12/05 07:54:57;;;;;;;;;39.50;28.25;;;;;5.95;59.62;101282.44;5068773;28;61518;-38
2022/12/05 07:57:22;;;;;;;;;37.50;28.25;;;;;5.98;59.52;101293.72;5066328;28;45351;-38
2022/12/05 07:59:48;;;;;;;;;41.75;32.75;;;;;6.00;59.56;101293.72;5076739;28;45406;-38
2022/12/05 08:02:13;;;;;;;;;35.50;27.75;;;;;5.99;59.68;101290.28;5069241;27;45400;-38
2022/12/05 08:04:38;;;;;;;;;42.50;32.25;;;;;6.04;59.57;101306.72;5067176;27;45425;-38
2022/12/05 08:07:04;;;;;;;;;38.50;29.25;;;;;6.05;59.36;101299.78;5074941;27;60659;-38
2022/12/05 08:09:29;;;;;;;;;36.75;33.00;;;;;6.05;59.80;101308.44;5079205;27;45983;-38
2022/12/05 08:11:54;;;;;;;;;27.00;26.50;;;;;6.07;59.77;101305.84;5078688;27;71626;-38
2022/12/05 08:14:20;;;;;;;;;41.75;30.25;;;;;6.08;59.66;101323.19;5091930;27;59969;-38
2022/12/05 08:16:45;;;;;;;;;36.25;25.50;;;;;6.08;59.59;101321.44;5073652;27;45354;-38
2022/12/05 08:19:15;;;;;;;;;38.50;29.00;;;;;6.10;59.74;101318.00;5072346;27;46676;-39
2022/12/05 08:21:41;;;;;;;;;43.75;31.00;;;;;6.08;59.74;101324.06;5067213;27;45512;-38
2022/12/05 08:24:06;;;;;;;;;47.25;32.00;;;;;6.10;59.69;101331.00;5076322;27;45449;-39
2022/12/05 08:26:33;;;;;;;;;44.25;34.00;;;;;6.08;59.59;101329.25;5076189;27;45439;-39
2022/12/05 08:29:03;;;;;;;;;44.50;31.00;;;;;6.07;59.92;101332.72;5078704;27;45888;-39
2022/12/05 08:31:31;;;;;;;;;41.75;28.75;;;;;6.08;59.48;101331.84;5068154;27;46861;-39
2022/12/05 08:33:57;;;;;;;;;44.25;31.50;;;;;6.08;59.61;101328.41;5063480;28;45814;-39
2022/12/05 08:36:23;;;;;;;;;32.50;28.50;;;;;6.05;59.65;101328.38;5064030;28;45403;-39
2022/12/05 08:38:48;;;;;;;;;37.50;25.00;;;;;6.04;59.79;101335.31;5075563;28;45612;-41
2022/12/05 08:41:16;;;;;;;;;39.75;33.50;;;;;5.99;59.40;101323.19;5066874;27;65052;-41
2022/12/05 08:43:42;;;;;;;;;48.50;34.25;;;;;6.03;59.52;101330.13;5079647;27;45929;-43
2022/12/05 08:46:07;;;;;;;;;37.00;31.50;;;;;6.01;59.80;101331.84;5067514;27;45372;-40
2022/12/05 08:48:34;;;;;;;;;48.25;34.00;;;;;6.00;59.71;101335.31;5071889;27;45502;-40
2022/12/05 08:51:04;;;;;;;;;37.25;30.50;;;;;5.98;59.88;101332.69;5067158;27;46620;-41
2022/12/05 08:53:29;;;;;;;;;35.50;22.00;;;;;5.96;60.03;101329.22;5079525;28;45435;-41
2022/12/05 08:55:54;;;;;;;;;40.25;30.00;;;;;5.95;59.57;101327.47;5063131;27;54429;-41
2022/12/05 08:58:20;;;;;;;;;81.33;58.33;;;;;5.95;59.70;101332.69;5071483;28;66161;-41
2022/12/05 09:00:45;;;;;;;;;53.00;36.00;;;;;5.95;60.13;101335.28;5062419;27;70209;-41
2022/12/05 09:03:11;;;;;;;;;48.25;35.50;;;;;5.94;59.79;101343.06;5071782;28;61684;-40
2022/12/05 09:05:37;;;;;;;;;35.25;27.75;;;;;5.93;59.85;101352.56;5079234;27;45329;-42
2022/12/05 09:08:02;;;;;;;;;37.25;26.75;;;;;5.94;59.64;101351.72;5069329;28;45568;-40
2022/12/05 09:10:28;;;;;;;;;39.00;33.50;;;;;5.93;59.77;101355.16;5087655;27;46116;-40
2022/12/05 09:12:54;;;;;;;;;43.25;30.50;;;;;5.95;59.85;101356.06;5076531;28;45257;-40
2022/12/05 09:15:19;;;;;;;;;38.25;29.50;;;;;5.96;59.83;101355.22;5073791;28;45338;-40
2022/12/05 09:17:44;;;;;;;;;46.00;36.25;;;;;5.95;59.87;101352.56;5087228;27;61768;-41
2022/12/05 09:20:12;;;;;;;;;50.25;35.75;;;;;5.96;59.67;101355.22;5067164;27;45226;-41
2022/12/05 09:22:41;;;;;;;;;37.25;27.75;;;;;5.98;59.85;101344.81;5069256;28;45382;-40
2022/12/05 09:25:08;;;;;;;;;39.25;33.00;;;;;5.97;59.68;101362.16;5075325;27;45463;-41
2022/12/05 09:27:33;;;;;;;;;51.00;34.75;;;;;5.96;59.85;101359.53;5070299;27;45368;-41
2022/12/05 09:29:58;;;;;;;;;53.25;39.00;;;;;5.99;60.36;101367.34;5069616;27;49803;-41
2022/12/05 09:32:24;;;;;;;;;48.50;34.50;;;;;5.99;60.12;101368.22;5074333;27;51716;-41
2022/12/05 09:34:49;;;;;;;;;43.75;32.00;;;;;5.98;60.10;101361.28;5072764;27;57005;-41
2022/12/05 09:37:14;;;;;;;;;44.00;31.75;;;;;6.00;60.07;101366.47;5074096;27;45335;-40
2022/12/05 09:39:42;;;;;;;;;41.75;32.75;;;;;5.98;59.76;101366.47;5078762;27;45654;-40
2022/12/05 09:42:30;;;;;;;;;41.75;34.50;;;;;5.99;60.00;101373.41;5078932;27;45336;-40
2022/12/05 09:45:13;;;;;;;;;39.75;27.50;;;;;6.02;60.02;101370.81;5072621;28;45342;-40
2022/12/05 09:48:04;;;;;;;;;34.75;25.50;;;;;6.04;59.78;101371.69;5079195;27;45903;-40
2022/12/05 09:50:46;;;;;;;;;44.50;36.00;;;;;6.04;59.94;101373.44;5068518;28;47389;-41
2022/12/05 09:53:26;;;;;;;;;45.25;30.50;;;;;6.07;60.01;101381.22;5073629;28;45164;-40
2022/12/05 09:55:55;;;;;;;;;49.50;34.25;;;;;6.08;60.05;101380.34;5078605;27;45405;-41
2022/12/05 09:58:25;;;;;;;;;40.00;32.00;;;;;6.08;59.59;101385.56;5092932;27;45293;-41
2022/12/05 10:00:57;;;;;;;;;33.50;30.75;;;;;6.08;59.48;101382.97;5076628;27;46455;-40
2022/12/05 10:04:02;;;;;;;;;43.00;32.50;;;;;6.08;59.32;101385.56;5077147;27;45812;-43
2022/12/05 10:06:35;;;;;;;;;49.50;33.25;;;;;6.07;59.48;101384.69;5050522;28;45574;-43
2022/12/05 10:09:18;;;;;;;;;32.50;28.25;;;;;6.08;59.30;101389.00;5079222;27;45265;-41
2022/12/05 10:12:13;;;;;;;;;37.25;30.25;;;;;6.11;59.57;101397.66;5079511;28;45404;-41
2022/12/05 10:14:59;;;;;;;;;49.75;34.00;;;;;6.12;58.94;101392.47;5062186;28;45904;-40
2022/12/05 10:17:38;;;;;;;;;46.25;36.00;;;;;6.15;58.80;101395.09;5065815;28;45378;-40
2022/12/05 10:20:33;;;;;;;;;46.00;34.00;;;;;6.20;59.24;101395.13;5073487;28;45541;-41
2022/12/05 10:23:13;;;;;;;;;53.00;38.00;;;;;6.22;58.94;101388.19;5049787;28;45682;-40
2022/12/05 10:25:39;;;;;;;;;55.50;37.50;;;;;6.22;58.98;101396.84;5070699;28;45545;-40
2022/12/05 10:28:15;;;;;;;;;53.75;35.75;;;;;6.21;58.76;101389.91;5066265;27;45474;-41
2022/12/05 10:30:41;;;;;;;;;49.50;35.00;;;;;6.20;58.67;101390.78;5078564;27;45425;-41
2022/12/05 10:33:17;;;;;;;;;56.75;38.25;;;;;6.21;58.82;101397.69;5078338;27;46019;-41
2022/12/05 10:35:43;;;;;;;;;44.00;33.25;;;;;6.18;58.94;101381.22;5083044;27;45402;-41
2022/12/05 10:38:29;;;;;;;;;47.75;33.25;;;;;6.20;59.18;101380.38;5071495;27;45436;-41
2022/12/05 10:40:58;;;;;;;;;55.00;38.75;;;;;6.26;59.00;101387.31;5070845;27;45575;-41
2022/12/05 10:43:26;;;;;;;;;45.50;35.50;;;;;6.31;58.66;101389.94;5086618;27;46067;-41
2022/12/05 10:45:52;;;;;;;;;51.25;35.50;;;;;6.33;58.57;101390.78;5070887;27;45826;-41
2022/12/05 10:48:19;;;;;;;;;42.50;35.25;;;;;6.35;58.46;101379.50;5080856;28;45318;-41
2022/12/05 10:50:50;;;;;;;;;53.00;38.75;;;;;6.37;58.59;101382.97;5080516;27;45177;-41
2022/12/05 10:53:30;;;;;;;;;49.00;37.25;;;;;6.42;58.54;101383.00;5080050;27;45345;-41
2022/12/05 10:55:56;;;;;;;;;45.50;35.00;;;;;6.45;57.88;101385.59;5075941;28;45322;-40
2022/12/05 10:58:26;;;;;;;;;53.00;34.75;;;;;6.43;58.20;101388.19;5083082;27;45334;-41
2022/12/05 11:00:55;;;;;;;;;53.00;37.00;;;;;6.43;58.10;101388.19;5091867;27;45350;-38
2022/12/05 11:03:22;;;;;;;;;47.25;34.75;;;;;6.44;58.02;101394.25;5093005;27;46595;-39
2022/12/05 11:05:52;;;;;;;;;52.25;37.25;;;;;6.45;57.99;101394.25;5088347;27;45357;-39
2022/12/05 11:08:28;;;;;;;;;54.00;37.25;;;;;6.49;58.04;101389.06;5077877;27;45557;-39
2022/12/05 11:11:02;;;;;;;;;52.50;39.00;;;;;6.49;57.93;101389.94;5069504;27;45407;-39
2022/12/05 11:13:28;;;;;;;;;52.00;37.00;;;;;6.51;58.10;101387.34;5077607;27;45281;-39
2022/12/05 11:15:53;;;;;;;;;45.75;37.50;;;;;6.52;57.99;101389.09;5081262;27;45189;-40
2022/12/05 11:18:33;;;;;;;;;53.75;38.50;;;;;6.58;57.82;101394.28;5075096;27;45463;-40
2022/12/05 11:21:12;;;;;;;;;59.75;38.50;;;;;6.62;57.75;101388.19;5082158;27;45342;-40
2022/12/05 11:23:38;;;;;;;;;54.75;37.50;;;;;6.63;57.41;101389.94;5069081;27;46162;-40
2022/12/05 11:26:05;;;;;;;;;47.00;37.50;;;;;6.62;57.27;101396.88;5072790;27;45474;-40
2022/12/05 11:28:33;;;;;;;;;54.00;39.50;;;;;6.60;57.66;101401.19;5092083;27;45340;-41
2022/12/05 11:31:05;;;;;;;;;49.50;37.50;;;;;6.61;57.36;101395.13;5081934;27;45265;-41
2022/12/05 11:33:33;;;;;;;;;55.25;41.25;;;;;6.62;57.45;101398.59;5080718;27;45495;-40
2022/12/05 11:36:09;;;;;;;;;57.75;41.00;;;;;6.60;57.13;101396.00;5080828;27;45549;-42
2022/12/05 11:38:34;;;;;;;;;55.75;37.25;;;;;6.60;57.30;101398.59;5095035;27;45406;-41